Time;durP1;ratioP1;P1;durP2;ratioP2;P2;SDS_P1;SDS_P2;PMS_P1;PMS_P2;Temp;Humidity;BMP_temperature;BMP_pressure;BME280_temperature;BME280_humidity;BME280_pressure;Samples;Min_cycle;Max_cycle;Signal;HPM_P1;HPM_P2
2024/01/24 00:00:05;;;;;;;38.63;25.90;;;;;21.80;100353.00;;;;2077119;28;20569;-60
2024/01/24 00:01:05;;;;;;;38.15;25.70;;;;;21.80;100387.00;;;;2072167;28;20207;-59
2024/01/24 00:02:05;;;;;;;37.60;25.67;;;;;21.70;100383.00;;;;2070051;28;20673;-59
2024/01/24 00:03:06;;;;;;;39.80;26.80;;;;;21.70;100384.00;;;;2077818;28;20237;-60
2024/01/24 00:04:06;;;;;;;37.20;25.00;;;;;21.70;100377.00;;;;2067153;28;20217;-59
2024/01/24 00:05:07;;;;;;;39.20;25.77;;;;;21.70;100384.00;;;;2064524;28;20230;-59
2024/01/24 00:06:07;;;;;;;34.97;24.20;;;;;21.70;100381.00;;;;2069868;28;20293;-58
2024/01/24 00:07:07;;;;;;;38.80;24.50;;;;;21.70;100374.00;;;;2068522;28;20236;-60
2024/01/24 00:08:08;;;;;;;35.53;25.87;;;;;21.70;100358.00;;;;2070518;28;20226;-59
2024/01/24 00:09:08;;;;;;;36.67;23.97;;;;;21.70;100363.00;;;;2059680;28;20229;-60
2024/01/24 00:10:10;;;;;;;38.07;24.33;;;;;21.70;100363.00;;;;2069695;28;20293;-59
2024/01/24 00:11:10;;;;;;;36.03;23.60;;;;;21.70;100339.00;;;;2077302;28;20678;-60
2024/01/24 00:12:11;;;;;;;38.17;25.53;;;;;21.70;100363.00;;;;2063088;28;20207;-60
2024/01/24 00:13:12;;;;;;;34.78;24.67;;;;;21.70;100348.00;;;;2070177;28;20218;-59
2024/01/24 00:14:12;;;;;;;34.43;23.30;;;;;21.70;100352.00;;;;2061176;28;20228;-60
2024/01/24 00:15:13;;;;;;;32.30;23.10;;;;;21.70;100357.00;;;;2070242;28;20214;-60
2024/01/24 00:16:13;;;;;;;35.33;24.60;;;;;21.70;100355.00;;;;2069486;28;20225;-60
2024/01/24 00:17:13;;;;;;;33.90;22.73;;;;;21.70;100356.00;;;;2062594;28;20215;-58
2024/01/24 00:18:14;;;;;;;36.50;23.33;;;;;21.70;100351.00;;;;2078601;28;20232;-59
2024/01/24 00:19:14;;;;;;;37.60;23.43;;;;;21.70;100335.00;;;;2057247;28;20218;-59
2024/01/24 00:20:14;;;;;;;33.13;22.27;;;;;21.70;100344.00;;;;2078432;28;20216;-59
2024/01/24 00:21:15;;;;;;;33.33;21.60;;;;;21.60;100320.00;;;;2071081;28;20245;-59
2024/01/24 00:22:15;;;;;;;30.90;21.63;;;;;21.70;100312.00;;;;2078375;28;20220;-59
2024/01/24 00:23:15;;;;;;;31.87;20.67;;;;;21.60;100357.00;;;;2075619;28;20224;-58
2024/01/24 00:24:16;;;;;;;31.27;22.00;;;;;21.70;100332.00;;;;2066569;28;20229;-59
2024/01/24 00:25:16;;;;;;;30.70;21.07;;;;;21.60;100341.00;;;;2086071;28;20227;-59
2024/01/24 00:26:17;;;;;;;32.13;22.03;;;;;21.60;100338.00;;;;2070573;28;20215;-59
2024/01/24 00:27:17;;;;;;;30.57;21.13;;;;;21.60;100311.00;;;;2070927;28;20720;-59
2024/01/24 00:28:18;;;;;;;32.30;20.87;;;;;21.60;100303.00;;;;2070508;28;21881;-58
2024/01/24 00:29:19;;;;;;;33.87;20.83;;;;;21.60;100331.00;;;;2066251;28;20457;-61
2024/01/24 00:30:19;;;;;;;26.60;19.33;;;;;21.60;100317.00;;;;2076862;28;21086;-59
2024/01/24 00:31:19;;;;;;;29.13;20.40;;;;;21.60;100304.00;;;;2063660;28;20639;-61
2024/01/24 00:32:20;;;;;;;28.57;19.80;;;;;21.60;100304.00;;;;2071079;28;20210;-60
2024/01/24 00:33:20;;;;;;;27.67;18.67;;;;;21.60;100309.00;;;;2056900;28;20246;-58
2024/01/24 00:34:20;;;;;;;29.33;19.87;;;;;21.60;100313.00;;;;2076501;28;20229;-58
2024/01/24 00:35:21;;;;;;;28.97;19.70;;;;;21.60;100306.00;;;;2064422;28;20222;-59
2024/01/24 00:36:22;;;;;;;28.97;19.17;;;;;21.60;100296.00;;;;2073157;28;20213;-58
2024/01/24 00:37:23;;;;;;;34.70;21.10;;;;;21.60;100298.00;;;;2066926;28;20217;-59
2024/01/24 00:38:24;;;;;;;31.17;19.55;;;;;21.60;100292.00;;;;2053870;28;20211;-59
2024/01/24 00:39:24;;;;;;;25.95;17.73;;;;;21.60;100274.00;;;;2078536;28;20214;-58
2024/01/24 00:40:24;;;;;;;27.03;17.90;;;;;21.60;100291.00;;;;2070974;28;20217;-58
2024/01/24 00:41:25;;;;;;;27.90;18.10;;;;;21.60;100294.00;;;;2078534;28;20233;-58
2024/01/24 00:42:25;;;;;;;28.90;19.43;;;;;21.60;100281.00;;;;2075270;28;20221;-59
2024/01/24 00:43:26;;;;;;;25.93;18.73;;;;;21.50;100285.00;;;;2068509;28;20969;-60
2024/01/24 00:44:26;;;;;;;27.73;18.60;;;;;21.60;100291.00;;;;2067358;28;20253;-60
2024/01/24 00:45:26;;;;;;;27.77;19.53;;;;;21.60;100107.00;;;;2070038;28;20713;-62
2024/01/24 00:46:26;;;;;;;29.37;18.00;;;;;21.50;100294.00;;;;2069451;28;20639;-59
2024/01/24 00:47:27;;;;;;;26.50;17.60;;;;;21.50;100307.00;;;;2065897;28;20214;-58
2024/01/24 00:48:27;;;;;;;26.00;17.90;;;;;21.60;100299.00;;;;2068305;28;20307;-58
2024/01/24 00:49:27;;;;;;;27.10;18.20;;;;;21.60;100311.00;;;;2073649;28;20220;-58
2024/01/24 00:50:28;;;;;;;26.53;18.90;;;;;21.60;100309.00;;;;2068180;28;20217;-59
2024/01/24 00:51:28;;;;;;;24.33;16.70;;;;;21.50;100294.00;;;;2066431;28;20229;-60
2024/01/24 00:52:29;;;;;;;24.50;17.00;;;;;21.50;100291.00;;;;2071493;28;20226;-61
2024/01/24 00:53:29;;;;;;;24.10;17.70;;;;;21.50;100310.00;;;;2068641;28;20244;-58
2024/01/24 00:54:29;;;;;;;27.47;16.87;;;;;21.50;100294.00;;;;2068388;28;20298;-60
2024/01/24 00:55:30;;;;;;;26.40;16.90;;;;;21.50;100314.00;;;;2078341;28;20248;-60
2024/01/24 00:56:30;;;;;;;25.03;16.33;;;;;21.50;100307.00;;;;2075252;28;20214;-60
2024/01/24 00:57:31;;;;;;;22.60;15.43;;;;;21.50;100318.00;;;;2077558;28;20222;-61
2024/01/24 00:58:31;;;;;;;22.63;16.33;;;;;21.50;100309.00;;;;2065976;28;20256;-58
2024/01/24 00:59:32;;;;;;;22.90;16.57;;;;;21.50;100288.00;;;;2074003;28;20513;-59
2024/01/24 01:00:32;;;;;;;23.60;15.90;;;;;21.50;100284.00;;;;2081664;28;20205;-59
2024/01/24 01:01:33;;;;;;;24.63;15.23;;;;;21.50;100296.00;;;;2069406;28;20249;-60
2024/01/24 01:02:33;;;;;;;23.97;15.73;;;;;21.50;100292.00;;;;2072684;28;20209;-60
2024/01/24 01:03:34;;;;;;;21.70;15.10;;;;;21.50;100281.00;;;;2061812;28;20214;-58
2024/01/24 01:04:34;;;;;;;21.20;14.77;;;;;21.40;100282.00;;;;2065889;28;20484;-59
2024/01/24 01:05:35;;;;;;;23.73;15.27;;;;;21.50;100283.00;;;;2073127;28;20214;-60
2024/01/24 01:06:36;;;;;;;21.60;14.45;;;;;21.00;100276.00;;;;2065174;28;20580;-60
2024/01/24 01:07:36;;;;;;;18.77;14.20;;;;;21.50;100296.00;;;;2073182;28;20202;-58
2024/01/24 01:08:36;;;;;;;21.40;15.23;;;;;21.50;100294.00;;;;2061399;28;20311;-59
2024/01/24 01:09:37;;;;;;;24.77;15.17;;;;;21.50;100288.00;;;;2077483;28;20210;-58
2024/01/24 01:10:37;;;;;;;21.83;14.33;;;;;21.50;100280.00;;;;2073637;28;20222;-58
2024/01/24 01:11:38;;;;;;;21.53;13.67;;;;;21.40;100285.00;;;;2072982;28;20244;-58
2024/01/24 01:12:38;;;;;;;20.33;14.25;;;;;21.50;100297.00;;;;2078339;28;20256;-58
2024/01/24 01:13:39;;;;;;;20.57;13.50;;;;;21.50;100292.00;;;;2062675;28;20227;-60
2024/01/24 01:14:39;;;;;;;21.23;14.20;;;;;21.40;100281.00;;;;2076599;28;20227;-60
2024/01/24 01:15:40;;;;;;;19.80;13.87;;;;;21.40;100284.00;;;;2075566;28;20229;-59
2024/01/24 01:16:40;;;;;;;20.58;12.98;;;;;21.40;100277.00;;;;2078158;28;20693;-58
2024/01/24 01:17:41;;;;;;;20.17;14.47;;;;;21.40;100282.00;;;;2074993;28;20297;-59
2024/01/24 01:18:41;;;;;;;20.10;13.30;;;;;21.40;100288.00;;;;2055759;28;20222;-60
2024/01/24 01:19:41;;;;;;;20.90;13.70;;;;;21.40;100301.00;;;;2073656;28;20222;-60
2024/01/24 01:20:42;;;;;;;22.13;13.50;;;;;21.40;100288.00;;;;2071054;28;20304;-60
2024/01/24 01:21:42;;;;;;;20.10;12.60;;;;;21.40;100294.00;;;;2077784;28;20217;-60
2024/01/24 01:22:42;;;;;;;18.67;12.97;;;;;21.40;100288.00;;;;2069816;28;20284;-60
2024/01/24 01:23:43;;;;;;;19.47;12.93;;;;;21.40;100291.00;;;;2058209;28;20225;-60
2024/01/24 01:24:43;;;;;;;19.00;12.70;;;;;21.40;100284.00;;;;2076604;28;20213;-60
2024/01/24 01:25:43;;;;;;;22.43;13.70;;;;;21.40;100273.00;;;;2072867;28;20319;-59
2024/01/24 01:26:44;;;;;;;17.37;11.67;;;;;21.40;100282.00;;;;2078274;28;20221;-60
2024/01/24 01:27:44;;;;;;;18.17;12.20;;;;;21.40;100290.00;;;;2073345;28;20220;-60
2024/01/24 01:28:44;;;;;;;18.80;11.93;;;;;21.40;100291.00;;;;2059398;28;20257;-60
2024/01/24 01:29:45;;;;;;;16.03;11.17;;;;;21.40;100303.00;;;;2072990;28;20244;-60
2024/01/24 01:30:45;;;;;;;17.47;12.27;;;;;21.40;100286.00;;;;2072909;28;20221;-60
2024/01/24 01:31:46;;;;;;;18.20;12.70;;;;;21.40;100287.00;;;;2072212;28;20241;-58
2024/01/24 01:32:46;;;;;;;17.90;12.17;;;;;21.40;100275.00;;;;2069842;28;20226;-58
2024/01/24 01:33:46;;;;;;;19.57;11.43;;;;;21.40;100287.00;;;;2061562;28;20464;-58
2024/01/24 01:34:47;;;;;;;16.43;11.00;;;;;21.40;100274.00;;;;2073007;28;20233;-59
2024/01/24 01:35:47;;;;;;;18.77;11.33;;;;;21.40;100274.00;;;;2073315;28;20218;-60
2024/01/24 01:36:47;;;;;;;17.77;11.73;;;;;21.40;100276.00;;;;2067140;28;20348;-58
2024/01/24 01:37:48;;;;;;;15.17;11.20;;;;;21.40;100286.00;;;;2069887;28;20280;-59
2024/01/24 01:38:48;;;;;;;14.93;10.23;;;;;21.40;100295.00;;;;2069867;28;20221;-59
2024/01/24 01:39:51;;;;;;;18.03;11.30;;;;;21.40;100284.00;;;;2078550;28;20274;-59
2024/01/24 01:40:52;;;;;;;14.90;9.48;;;;;21.40;100305.00;;;;2067224;28;20500;-58
2024/01/24 01:41:52;;;;;;;17.87;11.23;;;;;21.40;100288.00;;;;2071502;28;20233;-58
2024/01/24 01:42:52;;;;;;;16.57;11.17;;;;;21.40;100297.00;;;;2078170;28;20300;-59
2024/01/24 01:43:52;;;;;;;13.50;10.00;;;;;21.40;100266.00;;;;2062430;28;20232;-59
2024/01/24 01:44:53;;;;;;;15.90;10.50;;;;;21.40;100278.00;;;;2079228;28;20213;-60
2024/01/24 01:45:54;;;;;;;16.50;10.37;;;;;21.30;100282.00;;;;2078896;28;20220;-60
2024/01/24 01:46:55;;;;;;;15.60;10.55;;;;;21.40;100274.00;;;;2068857;28;20809;-60
2024/01/24 01:47:57;;;;;;;14.33;10.40;;;;;21.40;100284.00;;;;2066477;28;20210;-60
2024/01/24 01:48:57;;;;;;;16.15;10.35;;;;;21.40;100277.00;;;;2053953;28;20293;-59
2024/01/24 01:49:58;;;;;;;15.40;10.17;;;;;21.40;100276.00;;;;2069078;28;20959;-59
2024/01/24 01:50:58;;;;;;;15.40;10.50;;;;;21.40;100286.00;;;;2061248;28;20301;-59
2024/01/24 01:51:58;;;;;;;14.57;10.07;;;;;21.30;100282.00;;;;2052741;28;20207;-58
2024/01/24 01:52:59;;;;;;;12.40;8.87;;;;;21.30;100292.00;;;;2058991;28;20210;-59
2024/01/24 01:53:59;;;;;;;16.20;9.90;;;;;21.40;100285.00;;;;2037561;28;20215;-59
2024/01/24 01:55:00;;;;;;;13.40;9.97;;;;;21.30;100281.00;;;;2053004;28;20758;-60
2024/01/24 01:56:00;;;;;;;14.60;9.13;;;;;21.30;100287.00;;;;2060601;28;20303;-61
2024/01/24 01:57:01;;;;;;;17.33;10.43;;;;;21.30;100279.00;;;;2059625;28;20203;-59
2024/01/24 01:58:01;;;;;;;14.57;9.67;;;;;21.30;100274.00;;;;2057009;28;20270;-59
2024/01/24 01:59:01;;;;;;;11.83;8.27;;;;;21.30;100267.00;;;;2055471;28;20476;-60
2024/01/24 02:00:05;;;;;;;13.63;9.20;;;;;21.30;100270.00;;;;2063278;28;20699;-58
2024/01/24 02:01:06;;;;;;;13.25;8.65;;;;;21.30;100287.00;;;;2068002;28;20217;-60
2024/01/24 02:02:06;;;;;;;16.77;10.17;;;;;21.30;100300.00;;;;2061678;28;20219;-60
2024/01/24 02:03:06;;;;;;;16.63;10.07;;;;;21.40;100278.00;;;;2053863;28;20814;-59
2024/01/24 02:04:07;;;;;;;15.57;9.03;;;;;21.30;100281.00;;;;2055718;28;20233;-59
2024/01/24 02:05:07;;;;;;;15.20;8.60;;;;;21.30;100277.00;;;;2063014;28;20281;-62
2024/01/24 02:06:07;;;;;;;12.73;8.77;;;;;21.30;100269.00;;;;2065686;28;20215;-61
2024/01/24 02:07:08;;;;;;;12.30;8.23;;;;;21.30;100283.00;;;;2066393;28;20215;-61
2024/01/24 02:08:08;;;;;;;13.27;8.53;;;;;21.30;100277.00;;;;2068510;28;20299;-60
2024/01/24 02:09:09;;;;;;;13.30;8.43;;;;;21.30;100284.00;;;;2065051;28;21100;-60
2024/01/24 02:10:13;;;;;;;12.15;8.30;;;;;21.30;100283.00;;;;2068146;28;20238;-62
2024/01/24 02:11:13;;;;;;;11.43;8.07;;;;;21.30;100296.00;;;;2060967;28;20942;-60
2024/01/24 02:12:14;;;;;;;12.90;8.30;;;;;21.30;100333.00;;;;2063741;28;20214;-61
2024/01/24 02:13:14;;;;;;;12.03;8.13;;;;;21.30;100279.00;;;;2069250;28;20225;-62
2024/01/24 02:14:15;;;;;;;10.40;7.83;;;;;21.30;100306.00;;;;2061085;28;20205;-60
2024/01/24 02:15:15;;;;;;;13.13;9.93;;;;;21.30;100275.00;;;;2077070;28;20984;-59
2024/01/24 02:16:16;;;;;;;12.07;7.93;;;;;21.30;100272.00;;;;2078153;28;20228;-62
2024/01/24 02:17:16;;;;;;;12.57;7.83;;;;;21.30;100269.00;;;;2063449;28;20215;-60
2024/01/24 02:18:16;;;;;;;12.20;7.67;;;;;21.30;100270.00;;;;2076849;28;20217;-61
2024/01/24 02:19:17;;;;;;;12.83;8.50;;;;;21.30;100283.00;;;;2059801;28;20242;-59
2024/01/24 02:20:18;;;;;;;10.50;7.30;;;;;21.20;100262.00;;;;2067295;28;20214;-63
2024/01/24 02:21:18;;;;;;;10.25;7.28;;;;;21.20;100262.00;;;;2067104;28;20233;-61
2024/01/24 02:22:19;;;;;;;12.47;8.87;;;;;20.90;100266.00;;;;2063605;28;20297;-59
2024/01/24 02:23:19;;;;;;;11.67;7.63;;;;;21.30;100272.00;;;;2069128;28;20206;-60
2024/01/24 02:24:19;;;;;;;11.87;8.50;;;;;21.30;100259.00;;;;2049389;28;20663;-59
2024/01/24 02:25:20;;;;;;;11.03;7.20;;;;;21.20;100279.00;;;;2077119;28;20232;-60
2024/01/24 02:26:20;;;;;;;11.00;7.60;;;;;21.20;100257.00;;;;2070964;28;20242;-59
2024/01/24 02:27:20;;;;;;;12.20;8.17;;;;;21.20;100257.00;;;;2077893;28;20221;-62
2024/01/24 02:28:21;;;;;;;10.17;7.20;;;;;21.20;100268.00;;;;2068216;28;20220;-62
2024/01/24 02:29:21;;;;;;;11.00;7.07;;;;;21.20;100269.00;;;;2066077;28;20219;-62
2024/01/24 02:30:21;;;;;;;9.77;7.07;;;;;21.20;100269.00;;;;2076595;28;20303;-62
2024/01/24 02:31:22;;;;;;;11.33;6.50;;;;;21.20;100252.00;;;;2068950;28;20218;-59
2024/01/24 02:32:22;;;;;;;9.90;7.00;;;;;21.20;100241.00;;;;2077767;28;20209;-60
2024/01/24 02:33:22;;;;;;;12.40;7.67;;;;;21.20;100265.00;;;;2056643;28;20238;-60
2024/01/24 02:34:23;;;;;;;10.77;6.73;;;;;21.30;100247.00;;;;2075527;28;20208;-63
2024/01/24 02:35:25;;;;;;;11.77;7.50;;;;;20.90;100230.00;;;;2083361;28;20209;-60
2024/01/24 02:36:25;;;;;;;12.75;8.00;;;;;21.20;100244.00;;;;2063964;28;20883;-62
2024/01/24 02:37:25;;;;;;;9.07;6.63;;;;;21.20;100240.00;;;;2077427;28;20205;-60
2024/01/24 02:38:26;;;;;;;16.30;6.70;;;;;21.20;100230.00;;;;2059768;28;20229;-60
2024/01/24 02:39:26;;;;;;;11.17;7.30;;;;;21.20;100236.00;;;;2085305;28;20217;-62
2024/01/24 02:40:26;;;;;;;8.50;6.00;;;;;21.20;100234.00;;;;2072380;28;20207;-62
2024/01/24 02:41:27;;;;;;;10.73;6.90;;;;;21.20;100234.00;;;;2068423;28;20213;-60
2024/01/24 02:42:27;;;;;;;8.40;5.53;;;;;21.20;100231.00;;;;2074753;28;20217;-63
2024/01/24 02:43:28;;;;;;;10.20;6.43;;;;;21.20;100239.00;;;;2051337;28;20668;-59
2024/01/24 02:44:28;;;;;;;11.63;6.77;;;;;21.20;100232.00;;;;2066772;28;20477;-61
2024/01/24 02:45:29;;;;;;;9.40;6.40;;;;;21.20;100219.00;;;;2066312;28;20209;-59
2024/01/24 02:46:29;;;;;;;10.70;6.33;;;;;21.20;100219.00;;;;2077791;28;20209;-60
2024/01/24 02:47:29;;;;;;;10.60;6.63;;;;;21.20;100229.00;;;;2071487;28;20297;-63
2024/01/24 02:48:30;;;;;;;7.60;5.20;;;;;21.20;100237.00;;;;2055272;28;20218;-62
2024/01/24 02:49:30;;;;;;;9.30;6.30;;;;;21.20;100236.00;;;;2081818;28;20213;-60
2024/01/24 02:50:31;;;;;;;8.73;5.77;;;;;21.20;100222.00;;;;2071941;28;20288;-60
2024/01/24 02:51:31;;;;;;;9.20;6.37;;;;;21.20;100219.00;;;;2077462;28;20216;-60
2024/01/24 02:52:31;;;;;;;9.90;6.23;;;;;21.20;100211.00;;;;2070481;28;20211;-63
2024/01/24 02:53:32;;;;;;;11.87;6.87;;;;;21.20;100210.00;;;;2066707;28;20206;-61
2024/01/24 02:54:32;;;;;;;9.33;5.70;;;;;21.20;100224.00;;;;2080577;28;20205;-59
2024/01/24 02:55:33;;;;;;;7.97;5.33;;;;;21.20;100225.00;;;;2070888;28;20733;-59
2024/01/24 02:56:33;;;;;;;8.60;6.07;;;;;21.20;100197.00;;;;2077362;28;20205;-60
2024/01/24 02:57:33;;;;;;;8.07;5.73;;;;;21.20;100217.00;;;;2066760;28;20755;-59
2024/01/24 02:58:34;;;;;;;8.37;5.40;;;;;21.20;100215.00;;;;2066648;28;20686;-63
2024/01/24 02:59:34;;;;;;;9.63;5.67;;;;;21.20;100202.00;;;;2071845;28;20221;-60
2024/01/24 03:00:35;;;;;;;9.00;5.70;;;;;21.20;100204.00;;;;2066691;28;20756;-59
2024/01/24 03:01:35;;;;;;;8.13;4.97;;;;;21.10;100207.00;;;;2063029;28;20207;-60
2024/01/24 03:02:36;;;;;;;8.43;6.13;;;;;21.20;100207.00;;;;2065956;28;20269;-59
2024/01/24 03:03:39;;;;;;;7.80;5.07;;;;;21.20;100211.00;;;;2069121;28;20213;-59
2024/01/24 03:04:39;;;;;;;9.30;4.85;;;;;21.20;100206.00;;;;2077185;28;20232;-59
2024/01/24 03:05:40;;;;;;;7.90;4.90;;;;;21.10;100197.00;;;;2082586;28;20351;-59
2024/01/24 03:06:41;;;;;;;6.90;4.63;;;;;21.10;100194.00;;;;2069271;28;20217;-59
2024/01/24 03:07:41;;;;;;;7.15;4.60;;;;;21.10;100194.00;;;;2063677;28;20190;-59
2024/01/24 03:08:51;;;;;;;8.13;5.20;;;;;21.10;100181.00;;;;2057679;28;20246;-60
2024/01/24 03:09:51;;;;;;;6.93;4.57;;;;;21.10;100207.00;;;;2069582;28;20252;-59
2024/01/24 03:10:52;;;;;;;7.43;5.17;;;;;21.10;100192.00;;;;2076315;28;20576;-61
2024/01/24 03:11:52;;;;;;;7.50;5.03;;;;;21.10;100185.00;;;;2064746;28;20747;-62
2024/01/24 03:12:53;;;;;;;9.30;4.97;;;;;21.20;100187.00;;;;2073988;28;20710;-60
2024/01/24 03:13:53;;;;;;;7.10;4.73;;;;;21.10;100204.00;;;;2062649;28;20772;-60
2024/01/24 03:14:54;;;;;;;7.30;4.97;;;;;21.10;100188.00;;;;2081194;28;20208;-63
2024/01/24 03:15:54;;;;;;;6.33;4.13;;;;;21.10;100197.00;;;;2072507;28;20304;-60
2024/01/24 03:16:54;;;;;;;10.00;4.80;;;;;21.10;100207.00;;;;2069066;28;20694;-59
2024/01/24 03:17:55;;;;;;;7.40;5.07;;;;;21.10;100228.00;;;;2077267;28;20263;-59
2024/01/24 03:18:55;;;;;;;7.07;4.70;;;;;21.10;100215.00;;;;2065659;28;20209;-63
2024/01/24 03:19:55;;;;;;;7.13;4.53;;;;;21.10;100217.00;;;;2084915;28;20691;-61
2024/01/24 03:20:56;;;;;;;7.67;4.80;;;;;21.10;100198.00;;;;2071219;28;20239;-59
2024/01/24 03:21:56;;;;;;;7.43;4.70;;;;;21.10;100200.00;;;;2065446;28;20214;-59
2024/01/24 03:22:56;;;;;;;7.53;4.23;;;;;21.10;100178.00;;;;2067722;28;20229;-60
2024/01/24 03:23:57;;;;;;;7.00;4.20;;;;;21.10;100192.00;;;;2060689;28;20210;-60
2024/01/24 03:24:57;;;;;;;6.37;4.07;;;;;21.10;100210.00;;;;2076589;28;20252;-59
2024/01/24 03:25:58;;;;;;;6.73;4.40;;;;;20.60;100203.00;;;;2068727;28;20576;-64
2024/01/24 03:26:58;;;;;;;6.80;4.60;;;;;21.10;100189.00;;;;2060229;28;20650;-59
2024/01/24 03:27:58;;;;;;;7.17;5.07;;;;;21.10;100185.00;;;;2055866;28;20219;-60
2024/01/24 03:28:58;;;;;;;7.00;4.43;;;;;21.10;100183.00;;;;2060929;28;20213;-60
2024/01/24 03:29:59;;;;;;;7.40;4.63;;;;;21.10;100176.00;;;;2064843;28;20289;-61
2024/01/24 03:31:02;;;;;;;7.73;4.87;;;;;21.10;100188.00;;;;2070956;28;20217;-60
2024/01/24 03:32:03;;;;;;;8.48;4.82;;;;;21.10;100189.00;;;;2074086;28;20221;-59
2024/01/24 03:33:04;;;;;;;7.13;4.20;;;;;21.10;100187.00;;;;2069108;28;20210;-59
2024/01/24 03:34:05;;;;;;;6.15;4.03;;;;;21.10;100198.00;;;;2063766;28;20210;-59
2024/01/24 03:35:07;;;;;;;7.40;4.47;;;;;21.10;100178.00;;;;2066159;28;20357;-61
2024/01/24 03:36:07;;;;;;;7.10;4.20;;;;;21.10;100176.00;;;;2072604;28;20591;-60
2024/01/24 03:37:08;;;;;;;7.60;4.43;;;;;21.00;100171.00;;;;2070725;28;20210;-60
2024/01/24 03:38:08;;;;;;;6.30;4.00;;;;;21.10;100199.00;;;;2074027;28;20236;-59
2024/01/24 03:39:11;;;;;;;5.10;3.40;;;;;21.10;100175.00;;;;2065089;28;20225;-62
2024/01/24 03:40:12;;;;;;;6.15;3.80;;;;;21.10;100186.00;;;;2068117;28;20233;-59
2024/01/24 03:41:12;;;;;;;6.23;4.30;;;;;21.00;100193.00;;;;2068964;28;20629;-58
2024/01/24 03:42:12;;;;;;;6.17;3.90;;;;;21.00;100193.00;;;;2052351;28;20312;-62
2024/01/24 03:43:13;;;;;;;6.00;4.03;;;;;21.00;100178.00;;;;2066237;28;20207;-62
2024/01/24 03:44:13;;;;;;;5.93;4.30;;;;;21.10;100198.00;;;;2064032;28;20245;-60
2024/01/24 03:45:13;;;;;;;5.67;3.23;;;;;21.00;100182.00;;;;2082766;28;20217;-60
2024/01/24 03:46:18;;;;;;;6.93;4.20;;;;;21.10;100218.00;;;;2076161;28;20228;-63
2024/01/24 03:47:18;;;;;;;6.10;3.90;;;;;21.10;100222.00;;;;2075716;28;20214;-59
2024/01/24 03:48:18;;;;;;;6.10;3.37;;;;;21.10;100229.00;;;;2077317;28;20217;-62
2024/01/24 03:49:21;;;;;;;6.60;4.40;;;;;21.10;100242.00;;;;2060257;28;20658;-63
2024/01/24 03:50:21;;;;;;;5.93;3.50;;;;;21.10;100250.00;;;;2076522;28;20694;-61
2024/01/24 03:51:22;;;;;;;6.87;4.20;;;;;21.10;100243.00;;;;2070412;28;20245;-61
2024/01/24 03:52:22;;;;;;;5.87;3.90;;;;;21.10;100231.00;;;;2075663;28;20210;-60
2024/01/24 03:53:22;;;;;;;6.10;4.00;;;;;21.00;100236.00;;;;2057792;28;20210;-60
2024/01/24 03:54:23;;;;;;;4.67;3.00;;;;;21.00;100226.00;;;;2074532;28;20214;-62
2024/01/24 03:55:23;;;;;;;6.00;3.67;;;;;21.10;100232.00;;;;2076312;28;20217;-62
2024/01/24 03:56:23;;;;;;;6.13;3.50;;;;;21.10;100246.00;;;;2062319;28;20281;-62
2024/01/24 03:57:24;;;;;;;5.17;3.03;;;;;21.10;100224.00;;;;2077227;28;20213;-61
2024/01/24 03:58:24;;;;;;;5.07;3.37;;;;;21.00;100248.00;;;;2059138;28;20218;-59
2024/01/24 03:59:24;;;;;;;5.20;3.37;;;;;21.00;100227.00;;;;2083413;28;21675;-63
2024/01/24 04:00:25;;;;;;;9.37;3.90;;;;;21.00;100238.00;;;;2084042;28;20208;-60
2024/01/24 04:01:25;;;;;;;4.93;3.23;;;;;21.10;100240.00;;;;2063567;28;20242;-60
2024/01/24 04:02:25;;;;;;;6.53;3.53;;;;;21.00;100217.00;;;;2069143;28;20206;-58
2024/01/24 04:03:26;;;;;;;6.50;2.90;;;;;21.00;100240.00;;;;2058424;28;20330;-60
2024/01/24 04:04:26;;;;;;;5.70;3.20;;;;;21.00;100244.00;;;;2060706;28;20215;-59
2024/01/24 04:05:26;;;;;;;5.57;2.90;;;;;21.00;100280.00;;;;2076553;28;20714;-59
2024/01/24 04:06:27;;;;;;;4.93;2.90;;;;;21.00;100273.00;;;;2072377;28;20220;-59
2024/01/24 04:07:27;;;;;;;4.13;2.63;;;;;21.00;100285.00;;;;2053228;28;20211;-62
2024/01/24 04:08:27;;;;;;;4.13;2.70;;;;;21.00;100296.00;;;;2074323;28;20212;-60
2024/01/24 04:09:28;;;;;;;5.53;3.37;;;;;21.00;100277.00;;;;2070570;28;20286;-58
2024/01/24 04:10:28;;;;;;;6.40;3.97;;;;;21.00;100267.00;;;;2076991;28;20300;-58
2024/01/24 04:11:28;;;;;;;5.03;2.70;;;;;21.00;100250.00;;;;2067913;28;20222;-59
2024/01/24 04:12:30;;;;;;;4.05;2.50;;;;;21.00;100237.00;;;;2076128;28;21038;-61
2024/01/24 04:13:30;;;;;;;4.70;2.90;;;;;21.00;100305.00;;;;2055127;28;20212;-60
2024/01/24 04:14:31;;;;;;;5.03;3.20;;;;;21.00;100295.00;;;;2074826;28;20816;-60
2024/01/24 04:15:31;;;;;;;5.10;2.70;;;;;21.00;100302.00;;;;2075050;28;20723;-60
2024/01/24 04:16:32;;;;;;;4.20;2.80;;;;;20.10;100300.00;;;;2063436;28;20207;-60
2024/01/24 04:17:32;;;;;;;5.67;3.17;;;;;21.00;100306.00;;;;2076282;28;20224;-58
2024/01/24 04:18:32;;;;;;;5.33;2.93;;;;;21.00;100275.00;;;;2060342;28;20215;-59
2024/01/24 04:19:33;;;;;;;4.20;2.60;;;;;21.00;100284.00;;;;2076371;28;20225;-60
2024/01/24 04:20:33;;;;;;;5.27;2.90;;;;;21.00;100285.00;;;;2072197;28;20269;-60
2024/01/24 04:21:40;;;;;;;5.33;3.07;;;;;21.00;100288.00;;;;2071862;28;20218;-59
2024/01/24 04:22:41;;;;;;;4.13;2.70;;;;;21.00;100293.00;;;;2073005;28;20224;-60
2024/01/24 04:23:41;;;;;;;4.80;2.97;;;;;21.00;100289.00;;;;2057614;28;20214;-60
2024/01/24 04:24:42;;;;;;;6.20;3.60;;;;;21.00;100308.00;;;;2078084;28;20236;-60
2024/01/24 04:25:42;;;;;;;4.20;2.60;;;;;21.00;100314.00;;;;2067917;28;20214;-59
2024/01/24 04:26:43;;;;;;;5.07;3.03;;;;;21.00;100311.00;;;;2073132;28;20922;-59
2024/01/24 04:27:43;;;;;;;4.57;2.77;;;;;21.00;100314.00;;;;2072276;28;20777;-60
2024/01/24 04:28:44;;;;;;;4.37;2.60;;;;;21.00;100303.00;;;;2059634;28;20218;-60
2024/01/24 04:29:44;;;;;;;5.57;2.70;;;;;21.00;100289.00;;;;2075179;28;20844;-60
2024/01/24 04:30:44;;;;;;;4.57;2.60;;;;;21.00;100338.00;;;;2067504;28;20213;-58
2024/01/24 04:31:45;;;;;;;4.70;2.67;;;;;21.00;100317.00;;;;2077687;28;20345;-58
2024/01/24 04:32:45;;;;;;;4.40;2.20;;;;;21.00;100273.00;;;;2069487;28;22305;-59
2024/01/24 04:33:46;;;;;;;3.33;1.90;;;;;21.00;100258.00;;;;2058314;28;20222;-60
2024/01/24 04:34:46;;;;;;;4.60;2.57;;;;;21.00;100250.00;;;;2068672;28;20253;-60
2024/01/24 04:35:46;;;;;;;4.03;2.33;;;;;21.00;100256.00;;;;2077585;28;20243;-60
2024/01/24 04:36:46;;;;;;;3.83;2.23;;;;;21.00;100259.00;;;;2075564;28;20214;-60
2024/01/24 04:37:47;;;;;;;4.93;2.77;;;;;21.00;100290.00;;;;2068521;28;20252;-60
2024/01/24 04:38:47;;;;;;;4.37;2.53;;;;;21.00;100260.00;;;;2067416;28;20213;-58
2024/01/24 04:39:47;;;;;;;4.93;2.67;;;;;20.90;100292.00;;;;2072000;28;20303;-58
2024/01/24 04:40:48;;;;;;;4.43;1.90;;;;;20.90;100268.00;;;;2078376;28;20214;-59
2024/01/24 04:41:48;;;;;;;3.90;2.40;;;;;20.90;100270.00;;;;2072922;28;20271;-59
2024/01/24 04:42:49;;;;;;;4.97;2.60;;;;;20.90;100261.00;;;;2073788;28;20301;-60
2024/01/24 04:43:49;;;;;;;4.40;2.33;;;;;21.00;100285.00;;;;2062276;28;20214;-60
2024/01/24 04:44:49;;;;;;;5.53;2.27;;;;;21.00;100279.00;;;;2066271;28;20218;-60
2024/01/24 04:45:50;;;;;;;4.00;2.07;;;;;21.00;100275.00;;;;2078097;28;20213;-58
2024/01/24 04:46:50;;;;;;;4.07;2.37;;;;;21.00;100284.00;;;;2069841;28;20221;-59
2024/01/24 04:47:50;;;;;;;3.73;2.30;;;;;21.00;100290.00;;;;2078400;28;20557;-60
2024/01/24 04:48:51;;;;;;;4.57;2.17;;;;;20.90;100294.00;;;;2059859;28;20585;-60
2024/01/24 04:49:51;;;;;;;3.93;2.33;;;;;20.90;100284.00;;;;2067142;28;20210;-60
2024/01/24 04:50:51;;;;;;;4.00;2.43;;;;;20.90;100293.00;;;;2069923;28;20214;-60
2024/01/24 04:51:52;;;;;;;4.00;2.30;;;;;20.90;100295.00;;;;2061126;28;20313;-60
2024/01/24 04:52:52;;;;;;;4.70;2.57;;;;;20.90;100307.00;;;;2077348;28;20216;-58
2024/01/24 04:53:52;;;;;;;4.50;1.90;;;;;20.90;100296.00;;;;2059687;28;20209;-59
2024/01/24 04:54:52;;;;;;;3.63;2.07;;;;;20.90;100300.00;;;;2076002;28;20221;-59